createdAt,value
2024-01-07T00:00:52.693Z,98427.41
2024-01-07T00:03:57.388Z,98427.81
2024-01-07T00:07:00.636Z,98428.59
2024-01-07T00:10:04.646Z,98430.91
2024-01-07T00:13:07.701Z,98430.16
2024-01-07T00:16:11.129Z,98423.97
2024-01-07T00:19:14.519Z,98430.91
2024-01-07T00:22:18.767Z,98424.72
2024-01-07T00:25:23.069Z,98431.28
2024-01-07T00:28:26.410Z,98432.03
2024-01-07T00:31:29.572Z,98429.34
2024-01-07T00:34:35.621Z,98429.41
2024-01-07T00:37:39.270Z,98430.16
2024-01-07T00:40:42.583Z,98430.91
2024-01-07T00:43:45.549Z,98429.00
2024-01-07T00:46:49.328Z,98431.28
2024-01-07T00:49:52.479Z,98436.66
2024-01-07T00:52:58.781Z,98431.25
2024-01-07T00:56:02.649Z,98423.19
2024-01-07T00:59:12.377Z,98433.22
2024-01-07T01:02:17.259Z,98425.50
2024-01-07T01:05:20.769Z,98427.41
2024-01-07T01:08:24.554Z,98425.13
2024-01-07T01:11:29.100Z,98432.81
2024-01-07T01:14:32.097Z,98428.25
2024-01-07T01:17:35.411Z,98431.69
2024-01-07T01:20:38.787Z,98428.97
2024-01-07T01:23:42.077Z,98429.75
2024-01-07T01:26:45.083Z,98426.28
2024-01-07T01:29:48.453Z,98433.19
2024-01-07T01:32:51.500Z,98436.66
2024-01-07T01:35:55.540Z,98427.03
2024-01-07T01:39:01.069Z,98427.41
2024-01-07T01:42:05.975Z,98426.66
2024-01-07T01:45:12.522Z,98433.56
2024-01-07T01:48:16.752Z,98427.81
2024-01-07T01:51:20.695Z,98427.47
2024-01-07T01:54:24.942Z,98419.91
2024-01-07T01:57:35.955Z,98420.84
2024-01-07T02:00:39.543Z,98419.72
2024-01-07T02:03:43.041Z,98415.87
2024-01-07T02:06:47.144Z,98421.25
2024-01-07T02:09:50.548Z,98417.78
2024-01-07T02:12:56.676Z,98413.59
2024-01-07T02:16:02.721Z,98417.84
2024-01-07T02:19:07.335Z,98415.87
2024-01-07T02:22:12.366Z,98421.31
2024-01-07T02:25:20.171Z,98414.00
2024-01-07T02:28:26.569Z,98411.69
2024-01-07T02:31:29.884Z,98410.06
2024-01-07T02:34:35.233Z,98407.75
2024-01-07T02:37:40.350Z,98401.69
2024-01-07T02:40:44.264Z,98393.91
2024-01-07T02:43:47.789Z,98394.31
2024-01-07T02:46:52.684Z,98396.25
2024-01-07T02:49:56.112Z,98391.22
2024-01-07T02:52:59.141Z,98391.56
2024-01-07T02:56:02.431Z,98397.34
2024-01-07T02:59:05.239Z,98385.72
2024-01-07T03:02:08.564Z,98386.09
2024-01-07T03:05:11.543Z,98384.66
2024-01-07T03:08:14.743Z,98380.78
2024-01-07T03:11:20.521Z,98376.84
2024-01-07T03:14:24.589Z,98368.38
2024-01-07T03:17:27.717Z,98385.00
2024-01-07T03:20:32.963Z,98378.84
2024-01-07T03:23:37.661Z,98376.56
2024-01-07T03:26:44.743Z,98379.69
2024-01-07T03:29:47.906Z,98373.94
2024-01-07T03:32:51.261Z,98377.03
2024-01-07T03:35:54.248Z,98379.31
2024-01-07T03:38:58.813Z,98383.91
2024-01-07T03:42:03.165Z,98384.66
2024-01-07T03:45:06.683Z,98380.69
2024-01-07T03:48:09.775Z,98382.31
2024-01-07T03:51:13.211Z,98385.44
2024-01-07T03:54:19.177Z,98373.81
2024-01-07T03:57:23.016Z,98381.94
2024-01-07T04:00:26.242Z,98378.00
2024-01-07T04:03:31.125Z,98378.75
2024-01-07T04:06:34.125Z,98370.66
2024-01-07T04:09:37.848Z,98382.97
2024-01-07T04:12:41.730Z,98385.25
2024-01-07T04:15:45.339Z,98381.81
2024-01-07T04:18:53.081Z,98379.53
2024-01-07T04:21:58.643Z,98373.75
2024-01-07T04:25:02.043Z,98379.16
2024-01-07T04:28:05.430Z,98378.78
2024-01-07T04:31:08.512Z,98382.63
2024-01-07T04:34:12.837Z,98386.50
2024-01-07T04:37:15.834Z,98386.47
2024-01-07T04:40:19.958Z,98384.56
2024-01-07T04:43:24.861Z,98384.16
2024-01-07T04:46:28.247Z,98387.25
2024-01-07T04:49:33.127Z,98390.28
2024-01-07T04:52:38.794Z,98385.31
2024-01-07T04:55:41.898Z,98385.78
2024-01-07T04:58:45.185Z,98390.41
2024-01-07T05:01:48.346Z,98386.94
2024-01-07T05:04:51.656Z,98386.59
2024-01-07T05:07:56.429Z,98388.88
2024-01-07T05:10:59.649Z,98391.22
2024-01-07T05:14:03.826Z,98393.87
2024-01-07T05:17:07.748Z,98399.28
2024-01-07T05:20:12.228Z,98385.41
2024-01-07T05:23:16.321Z,98393.13
2024-01-07T05:26:19.435Z,98390.44
2024-01-07T05:29:23.681Z,98392.37
2024-01-07T05:32:26.711Z,98397.00
2024-01-07T05:35:30.213Z,98392.03
2024-01-07T05:38:33.507Z,98395.09
2024-01-07T05:41:39.893Z,98399.31
2024-01-07T05:44:43.737Z,98396.66
2024-01-07T05:47:47.376Z,98394.72
2024-01-07T05:50:51.482Z,98401.63
2024-01-07T05:53:54.825Z,98395.09
2024-01-07T05:56:57.675Z,98396.25
2024-01-07T06:00:01.217Z,98391.63
2024-01-07T06:03:03.943Z,98399.72
2024-01-07T06:06:07.976Z,98403.22
2024-01-07T06:09:11.021Z,98399.72
2024-01-07T06:12:14.347Z,98411.28
2024-01-07T06:15:17.280Z,98407.84
2024-01-07T06:18:21.990Z,98404.38
2024-01-07T06:21:25.058Z,98407.44
2024-01-07T06:24:31.019Z,98405.88
2024-01-07T06:27:34.689Z,98407.44
2024-01-07T06:30:38.149Z,98413.19
2024-01-07T06:33:44.053Z,98412.41
2024-01-07T06:36:47.538Z,98416.22
2024-01-07T06:39:51.492Z,98410.81
2024-01-07T06:42:54.843Z,98415.78
2024-01-07T06:46:01.512Z,98416.91
2024-01-07T06:49:16.078Z,98420.84
2024-01-07T06:52:24.225Z,98422.78
2024-01-07T06:55:31.964Z,98430.09
2024-01-07T06:58:34.880Z,98425.88
2024-01-07T07:01:41.042Z,98427.75
2024-01-07T07:04:45.564Z,98432.41
2024-01-07T07:07:50.422Z,98433.56
2024-01-07T07:10:58.654Z,98432.59
2024-01-07T07:14:02.777Z,98435.06
2024-01-07T07:17:05.941Z,98430.34
2024-01-07T07:20:10.169Z,98439.69
2024-01-07T07:23:13.186Z,98440.13
2024-01-07T07:26:19.330Z,98447.03
2024-01-07T07:29:23.836Z,98448.56
2024-01-07T07:32:27.014Z,98447.44
2024-01-07T07:35:29.876Z,98447.84
2024-01-07T07:38:33.669Z,98452.09
2024-01-07T07:41:36.668Z,98448.13
2024-01-07T07:44:40.507Z,98447.66
2024-01-07T07:47:46.736Z,98462.84
2024-01-07T07:50:50.970Z,98456.69
2024-01-07T07:53:53.911Z,98452.50
2024-01-07T07:56:57.165Z,98460.22
2024-01-07T08:00:02.547Z,98464.50
2024-01-07T08:03:10.472Z,98464.09
2024-01-07T08:06:15.965Z,98469.13
2024-01-07T08:09:18.915Z,98465.66
2024-01-07T08:12:22.118Z,98472.59
2024-01-07T08:15:25.059Z,98474.56
2024-01-07T08:18:30.185Z,98472.44
2024-01-07T08:21:35.296Z,98477.00
2024-01-07T08:24:40.810Z,98473.69
2024-01-07T08:27:46.400Z,98479.09
2024-01-07T08:30:50.763Z,98477.56
2024-01-07T08:33:53.954Z,98484.47
2024-01-07T08:36:57.266Z,98488.34
2024-01-07T08:40:00.794Z,98491.03
2024-01-07T08:43:04.463Z,98489.09
2024-01-07T08:46:08.015Z,98495.25
2024-01-07T08:49:11.415Z,98502.94
2024-01-07T08:52:16.814Z,98509.44
2024-01-07T08:55:20.117Z,98512.09
2024-01-07T08:58:23.151Z,98520.19
2024-01-07T09:01:27.542Z,98512.16
2024-01-07T09:04:30.582Z,98522.53
2024-01-07T09:07:33.895Z,98522.81
2024-01-07T09:10:36.816Z,98519.41
2024-01-07T09:13:44.148Z,98524.72
2024-01-07T09:16:47.650Z,98520.38
2024-01-07T09:19:51.686Z,98518.69
2024-01-07T09:22:54.632Z,98525.13
2024-01-07T09:25:58.560Z,98522.87
2024-01-07T09:29:02.744Z,98524.06
2024-01-07T09:32:06.222Z,98524.47
2024-01-07T09:35:11.813Z,98524.09
2024-01-07T09:38:16.069Z,98529.34
2024-01-07T09:41:19.485Z,98533.88
2024-01-07T09:44:22.939Z,98527.69
2024-01-07T09:47:26.087Z,98520.16
2024-01-07T09:50:33.123Z,98520.53
2024-01-07T09:53:37.299Z,98526.81
2024-01-07T09:56:44.666Z,98527.25
2024-01-07T09:59:48.215Z,98525.78
2024-01-07T10:02:51.433Z,98522.94
2024-01-07T10:05:54.762Z,98531.31
2024-01-07T10:08:57.767Z,98526.94
2024-01-07T10:12:01.765Z,98525.50
2024-01-07T10:15:06.876Z,98527.25
2024-01-07T10:18:11.094Z,98521.87
2024-01-07T10:21:16.779Z,98527.69
2024-01-07T10:24:20.799Z,98523.94
2024-01-07T10:27:25.030Z,98524.47
2024-01-07T10:30:37.560Z,98525.19
2024-01-07T10:33:42.209Z,98521.56
2024-01-07T10:36:46.304Z,98528.56
2024-01-07T10:39:50.510Z,98531.19
2024-01-07T10:42:54.401Z,98527.09
2024-01-07T10:46:01.814Z,98523.56
2024-01-07T10:49:22.673Z,98531.56
2024-01-07T10:52:30.934Z,98526.97
2024-01-07T10:55:37.945Z,98522.63
2024-01-07T10:58:41.483Z,98522.66
2024-01-07T11:01:46.506Z,98524.13
2024-01-07T11:05:06.762Z,98521.25
2024-01-07T11:08:32.378Z,98513.94
2024-01-07T11:11:42.674Z,98523.66
2024-01-07T11:14:48.705Z,98520.56
2024-01-07T11:17:52.103Z,98513.97
2024-01-07T11:20:55.445Z,98522.50
2024-01-07T11:23:58.467Z,98521.63
2024-01-07T11:27:04.879Z,98519.06
2024-01-07T11:30:11.980Z,98510.00
2024-01-07T11:33:18.685Z,98516.06
2024-01-07T11:36:23.072Z,98515.50
2024-01-07T11:39:26.245Z,98513.16
2024-01-07T11:42:29.149Z,98520.81
2024-01-07T11:45:33.128Z,98517.75
2024-01-07T11:48:36.273Z,98525.78
2024-01-07T11:51:39.827Z,98525.97
2024-01-07T11:54:46.162Z,98523.66
2024-01-07T11:57:49.467Z,98523.22
2024-01-07T12:00:53.477Z,98533.78
2024-01-07T12:03:57.061Z,98520.69
2024-01-07T12:07:00.944Z,98525.50
2024-01-07T12:10:04.457Z,98526.78
2024-01-07T12:13:07.716Z,98525.84
2024-01-07T12:16:12.415Z,98532.31
2024-01-07T12:19:18.478Z,98532.34
2024-01-07T12:22:21.932Z,98534.44
2024-01-07T12:25:25.502Z,98535.69
2024-01-07T12:28:30.330Z,98527.22
2024-01-07T12:31:37.383Z,98541.22
2024-01-07T12:34:47.167Z,98544.81
2024-01-07T12:37:50.499Z,98538.59
2024-01-07T12:40:54.449Z,98537.53
2024-01-07T12:43:58.712Z,98547.84
2024-01-07T12:47:02.157Z,98547.19
2024-01-07T12:50:06.301Z,98550.56
2024-01-07T12:53:11.242Z,98556.91
2024-01-07T12:56:15.371Z,98562.41
2024-01-07T12:59:18.850Z,98566.28
2024-01-07T13:02:21.865Z,98573.00
2024-01-07T13:05:25.456Z,98572.44
2024-01-07T13:08:28.636Z,98584.13
2024-01-07T13:11:32.770Z,98579.97
2024-01-07T13:14:36.468Z,98589.78
2024-01-07T13:17:40.221Z,98588.59
2024-01-07T13:20:43.163Z,98604.66
2024-01-07T13:23:46.453Z,98588.34
2024-01-07T13:26:49.745Z,98593.00
2024-01-07T13:29:53.847Z,98594.59
2024-01-07T13:32:58.829Z,98600.34
2024-01-07T13:36:04.812Z,98610.94
2024-01-07T13:39:09.026Z,98602.91
2024-01-07T13:42:13.895Z,98623.09
2024-01-07T13:45:17.968Z,98619.72
2024-01-07T13:48:21.337Z,98625.09
2024-01-07T13:51:25.736Z,98621.47
2024-01-07T13:54:29.308Z,98644.19
2024-01-07T13:57:33.213Z,98630.47
2024-01-07T14:00:36.540Z,98644.28
2024-01-07T14:03:42.904Z,98647.62
2024-01-07T14:06:48.124Z,98648.06
2024-01-07T14:09:51.470Z,98641.25
2024-01-07T14:12:58.462Z,98642.31
2024-01-07T14:16:02.969Z,98645.47
2024-01-07T14:19:06.045Z,98658.41
2024-01-07T14:22:09.483Z,98654.19
2024-01-07T14:25:12.663Z,98648.75
2024-01-07T14:28:16.750Z,98654.53
2024-01-07T14:31:19.962Z,98658.84
2024-01-07T14:34:24.745Z,98652.13
2024-01-07T14:37:29.142Z,98659.47
2024-01-07T14:40:32.403Z,98663.28
2024-01-07T14:43:36.768Z,98666.28
2024-01-07T14:46:40.807Z,98673.69
2024-01-07T14:49:44.958Z,98659.50
2024-01-07T14:52:48.496Z,98673.94
2024-01-07T14:55:53.142Z,98673.53
2024-01-07T14:58:56.775Z,98674.09
2024-01-07T15:02:00.917Z,98672.47
2024-01-07T15:05:06.162Z,98679.38
2024-01-07T15:08:09.212Z,98682.25
2024-01-07T15:11:12.549Z,98685.31
2024-01-07T15:14:16.148Z,98684.19
2024-01-07T15:17:19.778Z,98698.41
2024-01-07T15:20:22.753Z,98701.69
2024-01-07T15:23:26.002Z,98703.69
2024-01-07T15:26:29.197Z,98703.69
2024-01-07T15:29:32.502Z,98705.41
2024-01-07T15:32:35.621Z,98710.22
2024-01-07T15:35:39.003Z,98712.34
2024-01-07T15:38:41.927Z,98716.72
2024-01-07T15:41:46.492Z,98721.91
2024-01-07T15:44:51.629Z,98718.72
2024-01-07T15:47:56.118Z,98718.38
2024-01-07T15:50:59.908Z,98715.88
2024-01-07T15:54:03.214Z,98724.12
2024-01-07T15:57:06.770Z,98715.53
2024-01-07T16:00:10.885Z,98720.66
2024-01-07T16:03:14.960Z,98731.94
2024-01-07T16:06:18.044Z,98727.44
2024-01-07T16:09:21.557Z,98736.81
2024-01-07T16:12:28.732Z,98753.28
2024-01-07T16:15:31.915Z,98750.84
2024-01-07T16:18:34.784Z,98748.97
2024-01-07T16:21:40.420Z,98754.41
2024-01-07T16:24:46.893Z,98753.78
2024-01-07T16:27:50.241Z,98742.34
2024-01-07T16:30:53.432Z,98755.56
2024-01-07T16:33:56.916Z,98753.91
2024-01-07T16:37:02.112Z,98751.44
2024-01-07T16:40:13.389Z,98765.03
2024-01-07T16:43:16.494Z,98759.34
2024-01-07T16:46:20.879Z,98757.66
2024-01-07T16:52:31.382Z,98770.38
2024-01-07T16:55:34.301Z,98773.56
2024-01-07T16:58:40.030Z,98783.22
2024-01-07T17:01:44.946Z,98770.81
2024-01-07T17:04:48.468Z,98776.47
2024-01-07T17:07:51.631Z,98787.47
2024-01-07T17:10:55.743Z,98787.81
2024-01-07T17:13:58.697Z,98788.16
2024-01-07T17:17:02.123Z,98796.59
2024-01-07T17:20:05.883Z,98804.84
2024-01-07T17:23:10.924Z,98807.16
2024-01-07T17:26:14.112Z,98808.34
2024-01-07T17:29:17.592Z,98810.28
2024-01-07T17:32:24.142Z,98811.28
2024-01-07T17:35:27.507Z,98817.19
2024-01-07T17:38:30.831Z,98823.78
2024-01-07T17:41:34.226Z,98823.34
2024-01-07T17:44:42.694Z,98830.38
2024-01-07T17:47:47.057Z,98833.06
2024-01-07T17:50:49.884Z,98832.69
2024-01-07T17:53:54.442Z,98833.13
2024-01-07T17:56:57.344Z,98840.00
2024-01-07T18:00:02.482Z,98840.47
2024-01-07T18:03:10.837Z,98842.37
2024-01-07T18:06:20.671Z,98851.91
2024-01-07T18:09:24.427Z,98853.97
2024-01-07T18:12:27.959Z,98866.13
2024-01-07T18:15:31.939Z,98862.41
2024-01-07T18:18:35.488Z,98873.00
2024-01-07T18:21:38.532Z,98865.31
2024-01-07T18:24:51.436Z,98872.63
2024-01-07T18:27:54.521Z,98878.41
2024-01-07T18:30:57.781Z,98875.00
2024-01-07T18:34:02.011Z,98876.25
2024-01-07T18:37:05.576Z,98875.19
2024-01-07T18:40:10.817Z,98883.53
2024-01-07T18:43:13.981Z,98877.09
2024-01-07T18:46:17.462Z,98883.16
2024-01-07T18:49:22.541Z,98895.41
2024-01-07T18:52:26.185Z,98898.09
2024-01-07T18:55:30.179Z,98905.25
2024-01-07T18:58:35.928Z,98900.84
2024-01-07T19:01:41.016Z,98910.69
2024-01-07T19:04:46.969Z,98913.16
2024-01-07T19:07:50.337Z,98915.44
2024-01-07T19:10:54.337Z,98916.22
2024-01-07T19:13:57.830Z,98923.72
2024-01-07T19:17:04.914Z,98923.47
2024-01-07T19:20:09.273Z,98930.16
2024-01-07T19:23:13.923Z,98926.66
2024-01-07T19:26:17.347Z,98941.47
2024-01-07T19:29:20.462Z,98948.00
2024-01-07T19:32:24.638Z,98952.09
2024-01-07T19:35:28.049Z,98958.56
2024-01-07T19:38:34.710Z,98967.00
2024-01-07T19:41:38.433Z,98964.06
2024-01-07T19:44:42.412Z,98964.19
2024-01-07T19:47:48.804Z,98961.97
2024-01-07T19:50:52.220Z,98973.31
2024-01-07T19:53:55.653Z,98972.75
2024-01-07T19:57:01.127Z,98966.63
2024-01-07T20:00:06.401Z,98969.97
2024-01-07T20:03:12.595Z,98977.38
2024-01-07T20:06:17.120Z,98975.78
2024-01-07T20:09:20.287Z,98988.97
2024-01-07T20:12:24.837Z,98985.53
2024-01-07T20:15:27.915Z,98977.53
2024-01-07T20:18:31.415Z,98989.22
2024-01-07T20:21:37.479Z,98986.84
2024-01-07T20:24:44.176Z,98992.06
2024-01-07T20:27:47.548Z,98996.94
2024-01-07T20:30:51.029Z,99004.03
2024-01-07T20:33:54.413Z,99011.84
2024-01-07T20:36:57.825Z,99014.81
2024-01-07T20:40:00.771Z,99017.63
2024-01-07T20:43:07.703Z,99023.31
2024-01-07T20:46:10.805Z,99018.59
2024-01-07T20:49:14.674Z,99022.97
2024-01-07T20:52:20.099Z,99024.13
2024-01-07T20:55:23.361Z,99029.78
2024-01-07T20:58:31.191Z,99036.03
2024-01-07T21:01:34.645Z,99034.75
2024-01-07T21:04:38.725Z,99044.50
2024-01-07T21:07:47.367Z,99038.81
2024-01-07T21:10:50.500Z,99044.00
2024-01-07T21:13:54.129Z,99055.91
2024-01-07T21:16:58.122Z,99064.84
2024-01-07T21:20:01.757Z,99064.06
2024-01-07T21:23:07.758Z,99077.72
2024-01-07T21:26:12.535Z,99077.72
2024-01-07T21:29:15.603Z,99074.88
2024-01-07T21:32:20.044Z,99082.09
2024-01-07T21:35:23.152Z,99075.97
2024-01-07T21:38:30.030Z,99077.53
2024-01-07T21:41:33.517Z,99079.44
2024-01-07T21:44:39.702Z,99078.94
2024-01-07T21:47:45.239Z,99086.94
2024-01-07T21:50:48.582Z,99090.09
2024-01-07T21:53:52.084Z,99088.38
2024-01-07T21:56:58.119Z,99085.87
2024-01-07T22:00:01.176Z,99084.47
2024-01-07T22:03:04.717Z,99092.63
2024-01-07T22:06:08.169Z,99096.69
2024-01-07T22:09:11.251Z,99091.69
2024-01-07T22:12:14.652Z,99101.69
2024-01-07T22:15:17.573Z,99101.84
2024-01-07T22:18:21.626Z,99103.91
2024-01-07T22:21:24.993Z,99097.78
2024-01-07T22:24:29.665Z,99101.37
2024-01-07T22:27:34.921Z,99101.72
2024-01-07T22:30:39.652Z,99107.97
2024-01-07T22:33:42.997Z,99105.91
2024-01-07T22:36:47.318Z,99110.78
2024-01-07T22:39:52.626Z,99122.38
2024-01-07T22:42:56.474Z,99120.34
2024-01-07T22:45:59.511Z,99129.41
2024-01-07T22:49:03.428Z,99134.44
2024-01-07T22:52:10.668Z,99137.56
2024-01-07T22:55:14.256Z,99141.66
2024-01-07T22:58:18.133Z,99138.19
2024-01-07T23:01:28.902Z,99144.62
2024-01-07T23:04:31.907Z,99148.06
2024-01-07T23:07:35.142Z,99153.56
2024-01-07T23:10:38.254Z,99157.94
2024-01-07T23:13:41.843Z,99158.44
2024-01-07T23:16:47.257Z,99160.75
2024-01-07T23:19:50.588Z,99173.62
2024-01-07T23:22:53.611Z,99175.34
2024-01-07T23:25:57.107Z,99178.50
2024-01-07T23:29:00.649Z,99182.72
2024-01-07T23:32:05.558Z,99187.09
2024-01-07T23:35:08.991Z,99205.75
2024-01-07T23:38:13.183Z,99199.66
2024-01-07T23:41:16.488Z,99201.50
2024-01-07T23:44:20.303Z,99205.59
2024-01-07T23:47:26.285Z,99204.78
2024-01-07T23:50:31.131Z,99208.09
2024-01-07T23:53:36.348Z,99210.28
2024-01-07T23:56:42.415Z,99204.16
2024-01-07T23:59:45.621Z,99211.97
